Time;durP1;ratioP1;P1;durP2;ratioP2;P2;SDS_P1;SDS_P2;PMS_P1;PMS_P2;Temp;Humidity;BMP_temperature;BMP_pressure;BME280_temperature;BME280_humidity;BME280_pressure;Samples;Min_cycle;Max_cycle;Signal;HPM_P1;HPM_P2
2022/06/10 00:02:02;;;;;;;;;;;;;;;12.08;72.65;97043.69;5094431;28;20508;-71
2022/06/10 00:04:28;;;;;;;;;;;;;;;12.04;72.48;97048.53;5094648;28;19964;-70
2022/06/10 00:06:54;;;;;;;;;;;;;;;12.02;72.51;97049.78;5094016;28;19965;-70
2022/06/10 00:09:20;;;;;;;;;;;;;;;12.00;72.53;97051.81;5094502;28;19958;-70
2022/06/10 00:11:46;;;;;;;;;;;;;;;11.98;73.01;97052.81;5094610;28;20044;-70
2022/06/10 00:14:12;;;;;;;;;;;;;;;11.93;73.17;97050.03;5094373;28;19978;-70
2022/06/10 00:16:38;;;;;;;;;;;;;;;11.90;73.49;97047.81;5094613;28;19997;-70
2022/06/10 00:19:04;;;;;;;;;;;;;;;11.87;73.32;97042.97;5093518;28;19961;-70
2022/06/10 00:21:31;;;;;;;;;;;;;;;11.84;73.45;97050.44;5058936;28;19964;-70
2022/06/10 00:23:57;;;;;;;;;;;;;;;11.80;73.11;97057.97;5094127;28;20396;-70
2022/06/10 00:26:23;;;;;;;;;;;;;;;11.77;72.84;97053.13;5094584;28;19961;-71
2022/06/10 00:28:49;;;;;;;;;;;;;;;11.75;73.18;97058.56;5094127;28;20491;-70
2022/06/10 00:31:16;;;;;;;;;;;;;;;11.72;73.45;97050.31;5094229;28;19993;-70
2022/06/10 00:33:42;;;;;;;;;;;;;;;11.69;73.89;97058.59;5094304;28;19977;-70
2022/06/10 00:36:08;;;;;;;;;;;;;;;11.64;73.67;97053.19;5076111;28;19963;-70
2022/06/10 00:38:34;;;;;;;;;;;;;;;11.61;73.47;97054.41;5094019;28;19955;-70
2022/06/10 00:41:01;;;;;;;;;;;;;;;11.58;73.51;97055.63;5094707;28;20438;-70
2022/06/10 00:43:30;;;;;;;;;;;;;;;11.54;73.86;97059.69;5094366;28;19962;-71
2022/06/10 00:45:58;;;;;;;;;;;;;;;11.50;73.82;97055.84;5093945;28;19953;-70
2022/06/10 00:48:30;;;;;;;;;;;;;;;11.46;73.75;97057.28;5093811;28;19957;-70
2022/06/10 00:50:58;;;;;;;;;;;;;;;11.44;74.14;97054.06;5058754;28;19969;-70
2022/06/10 00:53:28;;;;;;;;;;;;;;;11.41;74.43;97057.13;5093769;28;20322;-70
2022/06/10 00:55:55;;;;;;;;;;;;;;;11.38;74.62;97050.47;5093990;28;19964;-70
2022/06/10 00:58:24;;;;;;;;;;;;;;;11.34;74.59;97051.91;5093842;28;19965;-70
2022/06/10 01:00:50;;;;;;;;;;;;;;;11.32;74.95;97047.88;5093580;28;19976;-70
2022/06/10 01:03:16;;;;;;;;;;;;;;;11.29;74.87;97048.25;5093624;28;19976;-71
2022/06/10 01:05:42;;;;;;;;;;;;;;;11.25;74.94;97055.75;5093941;28;20493;-70
2022/06/10 01:08:09;;;;;;;;;;;;;;;11.22;74.88;97056.16;5094016;28;19960;-70
2022/06/10 01:10:53;;;;;;;;;;;;;;;11.20;75.10;97058.19;5082053;28;19955;-71
2022/06/10 01:13:26;;;;;;;;;;;;;;;11.18;75.26;97062.84;5093912;28;20309;-70
2022/06/10 01:15:56;;;;;;;;;;;;;;;11.16;75.04;97051.75;5080075;28;19965;-70
2022/06/10 01:18:31;;;;;;;;;;;;;;;11.13;74.90;97055.59;5096834;28;20295;-70
2022/06/10 01:21:12;;;;;;;;;;;;;;;11.11;74.77;97060.25;5098014;28;20584;-70
2022/06/10 01:23:44;;;;;;;;;;;;;;;11.09;74.38;97057.00;5098057;28;19958;-70
2022/06/10 01:26:25;;;;;;;;;;;;;;;11.07;74.47;97056.41;5097780;28;19951;-71
2022/06/10 01:29:10;;;;;;;;;;;;;;;11.04;74.81;97064.69;5097639;28;19966;-71
2022/06/10 01:31:39;;;;;;;;;;;;;;;11.01;74.87;97065.09;5097686;28;19992;-70
2022/06/10 01:34:11;;;;;;;;;;;;;;;10.97;74.84;97066.53;5097443;28;19966;-70
2022/06/10 01:36:44;;;;;;;;;;;;;;;10.94;74.35;97065.13;5097683;28;19955;-71
2022/06/10 01:39:16;;;;;;;;;;;;;;;10.92;74.63;97066.34;5096970;28;19959;-71
2022/06/10 01:42:00;;;;;;;;;;;;;;;10.90;74.52;97065.75;5097201;28;20447;-71
2022/06/10 01:44:45;;;;;;;;;;;;;;;10.88;74.90;97071.19;5097308;28;19958;-71
2022/06/10 01:47:33;;;;;;;;;;;;;;;10.88;75.27;97079.06;5097181;28;19977;-71
2022/06/10 01:50:08;;;;;;;;;;;;;;;10.88;75.25;97076.44;5097414;28;19956;-71
2022/06/10 01:52:37;;;;;;;;;;;;;;;10.88;75.18;97086.13;5096348;28;19955;-71
2022/06/10 01:55:12;;;;;;;;;;;;;;;10.89;75.80;97087.72;5097026;28;19957;-71
2022/06/10 01:57:54;;;;;;;;;;;;;;;10.87;76.15;97081.88;5097078;28;19958;-70
2022/06/10 02:00:23;;;;;;;;;;;;;;;10.86;76.02;97086.31;5097288;28;19956;-70
2022/06/10 02:03:02;;;;;;;;;;;;;;;10.86;76.33;97085.53;5096897;28;19977;-70
2022/06/10 02:05:31;;;;;;;;;;;;;;;10.85;76.84;97081.28;5097020;28;19956;-70
2022/06/10 02:08:14;;;;;;;;;;;;;;;10.86;76.61;97085.53;5096774;28;20303;-70
2022/06/10 02:10:45;;;;;;;;;;;;;;;10.84;76.06;97083.09;5082631;28;19951;-70
2022/06/10 02:13:15;;;;;;;;;;;;;;;10.84;76.00;97085.72;5097179;28;19956;-70
2022/06/10 02:15:42;;;;;;;;;;;;;;;10.84;76.07;97090.97;5096709;28;19954;-70
2022/06/10 02:18:12;;;;;;;;;;;;;;;10.82;76.29;97085.13;5096533;28;20318;-70
2022/06/10 02:20:44;;;;;;;;;;;;;;;10.80;76.43;97088.97;5096577;28;19961;-71
2022/06/10 02:23:22;;;;;;;;;;;;;;;10.77;76.32;97085.72;5097014;28;19971;-70
2022/06/10 02:25:50;;;;;;;;;;;;;;;10.75;76.38;97095.63;5097072;28;19959;-70
2022/06/10 02:28:20;;;;;;;;;;;;;;;10.73;76.52;97102.88;5095984;28;19953;-70
2022/06/10 02:30:51;;;;;;;;;;;;;;;10.71;76.42;97099.66;5095269;28;19980;-71
2022/06/10 02:33:17;;;;;;;;;;;;;;;10.69;76.42;97101.69;5096738;28;19948;-70
2022/06/10 02:36:04;;;;;;;;;;;;;;;10.68;76.31;97097.41;5078184;28;20119;-70
2022/06/10 02:38:38;;;;;;;;;;;;;;;10.67;76.44;97097.66;5078017;28;19958;-70
2022/06/10 02:41:25;;;;;;;;;;;;;;;10.66;76.04;97106.50;5096157;28;19964;-70
2022/06/10 02:44:07;;;;;;;;;;;;;;;10.64;76.11;97104.09;5087461;28;19955;-70
2022/06/10 02:46:36;;;;;;;;;;;;;;;10.61;76.24;97104.50;5096086;28;19955;-70
2022/06/10 02:49:07;;;;;;;;;;;;;;;10.61;76.70;97115.00;5096212;28;20413;-70
2022/06/10 02:51:34;;;;;;;;;;;;;;;10.59;76.53;97113.59;5096245;28;20029;-70
2022/06/10 02:54:01;;;;;;;;;;;;;;;10.56;76.35;97122.63;5095959;28;19956;-70
2022/06/10 02:56:28;;;;;;;;;;;;;;;10.54;76.17;97114.16;5096064;28;19973;-70
2022/06/10 03:01:59;;;;;;;;;;;;;;;10.50;75.89;97113.78;5094859;28;19956;-70
2022/06/10 03:04:37;;;;;;;;;;;;;;;10.49;76.43;97124.47;5095777;28;19961;-70
2022/06/10 03:07:22;;;;;;;;;;;;;;;10.46;76.09;97123.06;5095911;28;19950;-70
2022/06/10 03:09:50;;;;;;;;;;;;;;;10.44;75.99;97122.44;5096060;28;20339;-70
2022/06/10 03:12:27;;;;;;;;;;;;;;;10.41;75.72;97117.56;5095777;28;19950;-71
2022/06/10 03:15:03;;;;;;;;;;;;;;;10.42;75.87;97123.66;5095861;28;19960;-70
2022/06/10 03:17:48;;;;;;;;;;;;;;;10.42;76.43;97128.91;5095949;28;19962;-70
2022/06/10 03:20:38;;;;;;;;;;;;;;;10.40;76.52;97130.91;5043465;28;20334;-70
2022/06/10 03:23:04;;;;;;;;;;;;;;;10.38;76.76;97136.34;5081129;28;20340;-70
2022/06/10 03:25:39;;;;;;;;;;;;;;;10.36;76.41;97139.16;5095339;28;19992;-70
2022/06/10 03:28:10;;;;;;;;;;;;;;;10.35;76.41;97129.69;5095604;28;19960;-71
2022/06/10 03:30:40;;;;;;;;;;;;;;;10.33;76.57;97138.75;5095056;28;19990;-71
2022/06/10 03:33:22;;;;;;;;;;;;;;;10.32;76.13;97140.56;5095491;28;19972;-71
2022/06/10 03:35:51;;;;;;;;;;;;;;;10.31;76.32;97141.59;5095480;28;20412;-70
2022/06/10 03:38:17;;;;;;;;;;;;;;;10.31;76.34;97141.59;5077241;28;19962;-70
2022/06/10 03:40:45;;;;;;;;;;;;;;;10.31;76.47;97138.97;5093192;28;20038;-70
2022/06/10 03:43:13;;;;;;;;;;;;;;;10.30;76.27;97145.19;5095169;28;19998;-70
2022/06/10 03:45:44;;;;;;;;;;;;;;;10.31;76.35;97146.81;5095066;28;19962;-71
2022/06/10 03:48:14;;;;;;;;;;;;;;;10.30;75.95;97145.19;5094909;28;20419;-71
2022/06/10 03:50:41;;;;;;;;;;;;;;;10.31;76.13;97149.44;5095741;28;19956;-70
2022/06/10 03:53:07;;;;;;;;;;;;;;;10.31;76.44;97151.25;5094884;28;19959;-70
2022/06/10 03:55:33;;;;;;;;;;;;;;;10.31;76.14;97146.81;5095089;28;19954;-70
2022/06/10 03:57:59;;;;;;;;;;;;;;;10.32;76.36;97147.63;5094894;28;20037;-71
2022/06/10 04:00:26;;;;;;;;;;;;;;;10.32;76.64;97156.28;5094550;28;20406;-72
2022/06/10 04:02:52;;;;;;;;;;;;;;;10.33;76.40;97155.31;5094959;28;19972;-70
2022/06/10 04:05:19;;;;;;;;;;;;;;;10.33;76.30;97157.09;5094538;28;19956;-70
2022/06/10 04:07:45;;;;;;;;;;;;;;;10.34;76.55;97163.97;5093881;28;19962;-70
2022/06/10 04:10:22;;;;;;;;;;;;;;;10.37;76.35;97160.94;5072290;28;19958;-70
2022/06/10 04:12:48;;;;;;;;;;;;;;;10.43;76.06;97169.84;5094433;28;19958;-70
2022/06/10 04:15:15;;;;;;;;;;;;;;;10.49;76.41;97172.47;5094859;28;19978;-70
2022/06/10 04:17:45;;;;;;;;;;;;;;;10.55;76.75;97176.91;5094903;28;20412;-70
2022/06/10 04:20:15;;;;;;;;;;;;;;;10.62;77.45;97171.66;5094563;28;19965;-70
2022/06/10 04:22:41;;;;;;;;;;;;;;;10.68;77.28;97167.44;5094201;28;20428;-70
2022/06/10 04:25:08;;;;;;;;;;;;;;;10.75;77.28;97169.09;5094524;28;19959;-70
2022/06/10 04:27:34;;;;;;;;;;;;;;;10.85;76.76;97167.88;5094173;28;19970;-70
2022/06/10 04:30:00;;;;;;;;;;;;;;;10.93;76.83;97172.91;5094164;28;19958;-70
2022/06/10 04:32:26;;;;;;;;;;;;;;;11.03;76.60;97178.56;5094497;28;19981;-71
2022/06/10 04:34:54;;;;;;;;;;;;;;;11.11;76.21;97172.31;5093383;28;20328;-71
2022/06/10 04:37:19;;;;;;;;;;;;;;;11.19;76.49;97169.47;5093053;28;20009;-71
2022/06/10 04:39:45;;;;;;;;;;;;;;;11.29;76.25;97169.06;5094222;28;19954;-71
2022/06/10 04:42:11;;;;;;;;;;;;;;;11.38;76.55;97175.69;5075866;28;20095;-70
2022/06/10 04:44:43;;;;;;;;;;;;;;;11.50;76.23;97171.44;5094283;28;19966;-70
2022/06/10 04:47:09;;;;;;;;;;;;;;;11.63;75.60;97178.47;5093971;28;19966;-70
2022/06/10 04:49:36;;;;;;;;;;;;;;;11.77;75.31;97174.00;5093999;28;19957;-70
2022/06/10 04:52:03;;;;;;;;;;;;;;;11.89;74.83;97174.19;5093441;28;19978;-70
2022/06/10 04:54:29;;;;;;;;;;;;;;;12.00;74.66;97170.09;5093780;28;20417;-70
2022/06/10 04:56:55;;;;;;;;;;;;;;;12.13;74.62;97177.94;5093879;28;19958;-70
2022/06/10 04:59:33;;;;;;;;;;;;;;;12.28;74.00;97167.13;5085667;28;19972;-71
2022/06/10 05:01:59;;;;;;;;;;;;;;;12.44;73.10;97161.38;5093599;28;19974;-71
2022/06/10 05:04:25;;;;;;;;;;;;;;;12.55;72.66;97160.69;5093911;28;20001;-70
2022/06/10 05:06:51;;;;;;;;;;;;;;;12.72;72.92;97165.44;5093919;28;19961;-71
2022/06/10 05:09:17;;;;;;;;;;;;;;;12.85;72.04;97167.16;5093157;28;20028;-70
2022/06/10 05:11:43;;;;;;;;;;;;;;;13.06;72.42;97173.88;5093585;28;20340;-70
2022/06/10 05:14:10;;;;;;;;;;;;;;;13.27;71.77;97164.78;5094104;28;19972;-70
2022/06/10 05:16:36;;;;;;;;;;;;;;;13.56;71.53;97160.69;5093711;28;19958;-70
2022/06/10 05:19:02;;;;;;;;;;;;;;;13.71;69.84;97160.31;5093794;28;19982;-70
2022/06/10 05:21:28;;;;;;;;;;;;;;;13.81;70.01;97161.41;5093454;28;19967;-71
2022/06/10 05:23:54;;;;;;;;;;;;;;;13.91;69.20;97160.09;5093379;28;19976;-70
2022/06/10 05:26:20;;;;;;;;;;;;;;;13.97;68.69;97153.94;5093618;28;19957;-70
2022/06/10 05:28:49;;;;;;;;;;;;;;;14.12;69.07;97164.91;5093358;28;20364;-70
2022/06/10 05:31:15;;;;;;;;;;;;;;;14.35;68.69;97158.91;5093336;28;19999;-71
2022/06/10 05:36:25;;;;;;;;;;;;;;;14.69;66.74;97148.72;5093571;28;19959;-70
2022/06/10 05:38:51;;;;;;;;;;;;;;;14.74;67.28;97155.94;5093322;28;19960;-71
2022/06/10 05:44:02;;;;;;;;;;;;;;;15.05;66.66;97151.41;5093367;28;19983;-71
2022/06/10 05:46:28;;;;;;;;;;;;;;;15.16;65.27;97140.84;5075496;28;19987;-71
2022/06/10 05:48:54;;;;;;;;;;;;;;;15.22;65.43;97150.50;5093264;28;19957;-71
2022/06/10 05:51:20;;;;;;;;;;;;;;;15.23;65.04;97151.31;5093376;28;19960;-70
2022/06/10 05:53:46;;;;;;;;;;;;;;;15.21;65.18;97150.72;5093416;28;19955;-70
2022/06/10 05:56:11;;;;;;;;;;;;;;;15.25;65.14;97159.00;5093545;28;20325;-70
2022/06/10 05:58:37;;;;;;;;;;;;;;;15.29;65.80;97168.88;5093166;28;19951;-71
2022/06/10 06:01:03;;;;;;;;;;;;;;;15.45;65.45;97167.38;5092909;28;20022;-71
2022/06/10 06:03:30;;;;;;;;;;;;;;;15.48;64.34;97148.41;5090897;28;20347;-70
2022/06/10 06:05:56;;;;;;;;;;;;;;;15.38;64.57;97156.91;5096902;28;19994;-70
2022/06/10 06:08:22;;;;;;;;;;;;;;;15.44;64.31;97155.19;5096946;28;20088;-71
2022/06/10 06:10:48;;;;;;;;;;;;;;;15.52;64.59;97154.84;5096946;28;19958;-70
2022/06/10 06:13:14;;;;;;;;;;;;;;;15.69;64.37;97146.22;5096869;28;20396;-71
2022/06/10 06:15:41;;;;;;;;;;;;;;;15.80;64.57;97155.97;5095964;28;19952;-71
2022/06/10 06:18:07;;;;;;;;;;;;;;;15.88;63.76;97152.97;5095749;28;19962;-70
2022/06/10 06:20:33;;;;;;;;;;;;;;;16.13;64.65;97165.09;5096824;28;19955;-70
2022/06/10 06:22:59;;;;;;;;;;;;;;;16.50;64.09;97148.81;5096704;28;20424;-71
2022/06/10 06:25:29;;;;;;;;;;;;;;;16.87;63.28;97145.75;5096672;28;20441;-70
2022/06/10 06:27:55;;;;;;;;;;;;;;;17.13;62.13;97123.88;5096515;28;19956;-70
2022/06/10 06:30:31;;;;;;;;;;;;;;;17.31;60.59;97119.38;5096266;28;20411;-71
2022/06/10 06:32:58;;;;;;;;;;;;;;;17.36;61.04;97120.22;5096442;28;19965;-71
2022/06/10 06:35:25;;;;;;;;;;;;;;;17.48;62.26;97136.03;5096613;28;19961;-71
2022/06/10 06:37:51;;;;;;;;;;;;;;;17.60;60.44;97110.22;5096330;28;19964;-71
2022/06/10 06:40:17;;;;;;;;;;;;;;;17.78;59.69;97103.78;5096657;28;20355;-70
2022/06/10 06:42:44;;;;;;;;;;;;;;;17.98;59.78;97111.22;5096310;28;19971;-70
2022/06/10 06:45:11;;;;;;;;;;;;;;;18.16;58.34;97101.31;5095136;28;19967;-70
2022/06/10 06:47:37;;;;;;;;;;;;;;;18.16;59.17;97111.94;5096300;28;19986;-70
2022/06/10 06:50:05;;;;;;;;;;;;;;;18.16;59.38;97127.84;5096091;28;20412;-70
2022/06/10 06:52:31;;;;;;;;;;;;;;;18.28;58.94;97112.59;5095667;28;19955;-71
2022/06/10 06:54:56;;;;;;;;;;;;;;;18.48;57.24;97096.06;5078220;28;20009;-70
2022/06/10 06:57:25;;;;;;;;;;;;;;;18.63;57.10;97098.81;5077855;28;19974;-70
2022/06/10 07:00:02;;;;;;;;;;;;;;;18.76;57.14;97092.28;5096100;28;19968;-70
2022/06/10 07:02:28;;;;;;;;;;;;;;;19.01;57.82;97104.97;5095934;28;20408;-70
2022/06/10 07:04:54;;;;;;;;;;;;;;;19.04;56.26;97077.88;5095704;28;20009;-70
2022/06/10 07:07:20;;;;;;;;;;;;;;;19.15;57.02;97101.88;5095972;28;19961;-70
2022/06/10 07:09:46;;;;;;;;;;;;;;;19.22;56.46;97089.97;5095919;28;19958;-71
2022/06/10 07:12:12;;;;;;;;;;;;;;;19.39;55.73;97086.34;5095533;28;19964;-70
2022/06/10 07:14:38;;;;;;;;;;;;;;;19.51;55.96;97097.56;5095534;28;19967;-70
2022/06/10 07:17:04;;;;;;;;;;;;;;;19.66;54.00;97064.91;5095571;28;19974;-71
2022/06/10 07:19:31;;;;;;;;;;;;;;;19.82;53.90;97076.41;5095805;28;19962;-71
2022/06/10 07:21:57;;;;;;;;;;;;;;;19.96;54.62;97090.84;5095611;28;20306;-71
2022/06/10 07:24:25;;;;;;;;;;;;;;;19.81;54.12;97082.81;5095345;28;19979;-71
2022/06/10 07:26:51;;;;;;;;;;;;;;;19.76;53.76;97088.09;5094308;28;20399;-71
2022/06/10 07:29:18;;;;;;;;;;;;;;;19.79;53.72;97082.25;5095470;28;19958;-71
2022/06/10 07:31:45;;;;;;;;;;;;;;;19.92;52.22;97073.78;5094990;28;19994;-70
2022/06/10 07:34:11;;;;;;;;;;;;;;;19.83;54.39;97091.34;5095312;28;20456;-70
2022/06/10 07:36:38;;;;;;;;;;;;;;;19.75;52.79;97067.88;5094126;28;19966;-71
2022/06/10 07:39:04;;;;;;;;;;;;;;;19.60;53.57;97066.72;5095026;28;19960;-71
2022/06/10 07:44:14;;;;;;;;;;;;;;;19.62;53.44;97090.44;5095599;28;19970;-70
2022/06/10 07:46:40;;;;;;;;;;;;;;;19.61;52.94;97083.50;5095178;28;19953;-71
2022/06/10 07:49:06;;;;;;;;;;;;;;;19.59;54.70;97099.72;5094858;28;20057;-71
2022/06/10 07:51:32;;;;;;;;;;;;;;;19.74;55.02;97109.66;5095045;28;19962;-71
2022/06/10 07:53:58;;;;;;;;;;;;;;;20.03;53.58;97094.06;5076981;28;19989;-71
2022/06/10 07:56:24;;;;;;;;;;;;;;;20.22;53.89;97098.88;5094008;28;19970;-70
2022/06/10 07:58:50;;;;;;;;;;;;;;;20.15;51.15;97095.66;5094846;28;20004;-70
2022/06/10 08:01:16;;;;;;;;;;;;;;;20.21;52.09;97102.63;5094686;28;19969;-70
2022/06/10 08:03:44;;;;;;;;;;;;;;;20.23;51.35;97111.94;5059172;28;19974;-70
2022/06/10 08:06:11;;;;;;;;;;;;;;;20.20;52.45;97117.81;5094792;28;20402;-70
2022/06/10 08:08:37;;;;;;;;;;;;;;;20.17;51.39;97112.97;5094813;28;20333;-71
2022/06/10 08:11:03;;;;;;;;;;;;;;;20.19;51.44;97115.38;5094718;28;19959;-71
2022/06/10 08:13:29;;;;;;;;;;;;;;;20.34;52.44;97127.94;5094654;28;19956;-71
2022/06/10 08:15:56;;;;;;;;;;;;;;;20.63;51.59;97121.06;5094667;28;20033;-71
2022/06/10 08:18:22;;;;;;;;;;;;;;;20.81;52.81;97129.59;5093663;28;20339;-71
2022/06/10 08:23:33;;;;;;;;;;;;;;;20.97;49.88;97122.41;5094621;28;19980;-71
2022/06/10 08:26:03;;;;;;;;;;;;;;;21.07;49.17;97127.72;5094365;28;19987;-71
2022/06/10 08:28:29;;;;;;;;;;;;;;;21.06;47.44;97124.28;5092784;28;20429;-71
2022/06/10 08:30:55;;;;;;;;;;;;;;;21.14;47.56;97133.56;5094178;28;20033;-71
2022/06/10 08:33:21;;;;;;;;;;;;;;;21.10;46.10;97119.19;5094287;28;19964;-71
2022/06/10 08:35:47;;;;;;;;;;;;;;;20.91;46.23;97121.59;5094436;28;20472;-71
2022/06/10 08:38:14;;;;;;;;;;;;;;;20.86;49.34;97154.41;5094816;28;20083;-70
2022/06/10 08:40:49;;;;;;;;;;;;;;;20.85;46.48;97130.66;5094029;28;20328;-71
2022/06/10 08:43:28;;;;;;;;;;;;;;;20.97;46.76;97136.53;5094124;28;19969;-71
2022/06/10 08:46:02;;;;;;;;;;;;;;;20.99;45.30;97123.72;5093986;28;19960;-71
2022/06/10 08:48:33;;;;;;;;;;;;;;;21.23;46.54;97139.16;5094473;28;19959;-71
2022/06/10 08:51:17;;;;;;;;;;;;;;;21.25;45.76;97135.19;5085367;28;19965;-71
2022/06/10 08:54:01;;;;;;;;;;;;;;;21.32;44.12;97128.78;5093967;28;19958;-71
2022/06/10 08:56:33;;;;;;;;;;;;;;;21.21;42.77;97122.66;5092773;28;19958;-71
2022/06/10 08:59:05;;;;;;;;;;;;;;;21.28;44.56;97128.50;5080151;28;19961;-71
2022/06/10 09:01:45;;;;;;;;;;;;;;;21.30;43.59;97142.38;5093635;28;19969;-71
2022/06/10 09:04:27;;;;;;;;;;;;;;;21.29;45.58;97140.75;5093898;28;19977;-71
2022/06/10 09:06:54;;;;;;;;;;;;;;;21.36;41.89;97140.50;5081519;28;19963;-71
2022/06/10 09:09:22;;;;;;;;;;;;;;;21.38;41.47;97131.16;5075539;28;19964;-71
2022/06/10 09:12:06;;;;;;;;;;;;;;;21.36;44.07;97159.97;5093622;28;19951;-71
2022/06/10 09:14:32;;;;;;;;;;;;;;;21.40;42.93;97150.34;5093651;28;19956;-71
2022/06/10 09:17:01;;;;;;;;;;;;;;;21.45;42.23;97154.91;5093598;28;20335;-71
2022/06/10 09:19:46;;;;;;;;;;;;;;;21.43;43.54;97159.72;5092915;28;20427;-71
2022/06/10 09:22:15;;;;;;;;;;;;;;;21.55;42.45;97152.22;5079905;28;19962;-71
2022/06/10 09:24:44;;;;;;;;;;;;;;;21.71;43.93;97160.16;5093205;28;19969;-71
2022/06/10 09:27:27;;;;;;;;;;;;;;;21.88;42.55;97152.63;5093523;28;20454;-71
2022/06/10 09:29:53;;;;;;;;;;;;;;;22.14;43.18;97163.22;5081421;28;20418;-70
2022/06/10 09:32:24;;;;;;;;;;;;;;;22.36;41.84;97147.63;5093690;28;19983;-70
2022/06/10 09:35:02;;;;;;;;;;;;;;;22.57;43.51;97167.00;5093426;28;19979;-71
2022/06/10 09:37:49;;;;;;;;;;;;;;;22.73;42.36;97157.00;5093843;28;20323;-71
2022/06/10 09:40:38;;;;;;;;;;;;;;;22.94;42.20;97152.28;5081346;28;20429;-71
2022/06/10 09:43:06;;;;;;;;;;;;;;;23.02;38.18;97138.34;5097617;28;19958;-71
2022/06/10 09:45:47;;;;;;;;;;;;;;;23.12;42.15;97161.56;5097408;28;19958;-70
2022/06/10 09:48:15;;;;;;;;;;;;;;;23.23;41.66;97156.91;5097244;28;19953;-71
2022/06/10 09:50:55;;;;;;;;;;;;;;;23.31;39.67;97140.22;5097877;28;20436;-72
2022/06/10 09:53:36;;;;;;;;;;;;;;;23.21;40.50;97149.16;5097264;28;19958;-71
2022/06/10 09:56:08;;;;;;;;;;;;;;;22.95;38.11;97143.22;5079431;28;19966;-71
2022/06/10 09:58:58;;;;;;;;;;;;;;;22.97;37.94;97137.56;5097125;28;19955;-71
2022/06/10 10:01:37;;;;;;;;;;;;;;;23.01;39.98;97149.31;5086470;28;19972;-71
2022/06/10 10:04:16;;;;;;;;;;;;;;;23.12;40.15;97161.56;5082286;28;19972;-71
2022/06/10 10:06:46;;;;;;;;;;;;;;;23.32;40.73;97149.06;5097270;28;19960;-71
2022/06/10 10:09:31;;;;;;;;;;;;;;;23.53;38.97;97142.41;5096832;28;19960;-71
2022/06/10 10:11:59;;;;;;;;;;;;;;;23.63;40.50;97150.31;5097264;28;19960;-71
2022/06/10 10:14:34;;;;;;;;;;;;;;;23.80;37.45;97139.19;5096718;28;19965;-71
2022/06/10 10:17:08;;;;;;;;;;;;;;;23.93;39.70;97150.28;5097033;28;19967;-71
2022/06/10 10:19:34;;;;;;;;;;;;;;;24.07;37.99;97140.47;5095567;28;20419;-71
2022/06/10 10:22:06;;;;;;;;;;;;;;;24.19;37.89;97135.50;5078482;28;19957;-71
2022/06/10 10:24:37;;;;;;;;;;;;;;;24.19;36.72;97130.13;5096659;28;19967;-71
2022/06/10 10:27:08;;;;;;;;;;;;;;;24.04;36.42;97128.44;5096131;28;19960;-70
2022/06/10 10:29:38;;;;;;;;;;;;;;;23.91;36.88;97129.13;5096523;28;19953;-71
2022/06/10 10:32:08;;;;;;;;;;;;;;;23.57;34.77;97118.53;5096229;28;20360;-71
2022/06/10 10:34:36;;;;;;;;;;;;;;;23.62;39.15;97148.75;5096404;28;19978;-71
2022/06/10 10:37:05;;;;;;;;;;;;;;;23.88;38.96;97143.91;5096647;28;19967;-71
2022/06/10 10:39:36;;;;;;;;;;;;;;;24.14;38.12;97137.44;5096381;28;19958;-71
2022/06/10 10:42:03;;;;;;;;;;;;;;;24.29;36.05;97124.59;5096565;28;19968;-71
2022/06/10 10:44:58;;;;;;;;;;;;;;;24.23;34.63;97119.59;5094322;28;20308;-71
2022/06/10 10:47:25;;;;;;;;;;;;;;;24.15;35.03;97131.78;5096418;28;19963;-71
2022/06/10 10:49:51;;;;;;;;;;;;;;;24.10;34.41;97127.28;5095606;28;19957;-71
2022/06/10 10:52:20;;;;;;;;;;;;;;;24.05;32.69;97116.63;5096305;28;19957;-71
2022/06/10 10:54:48;;;;;;;;;;;;;;;24.02;35.72;97130.63;5096021;28;19954;-71
2022/06/10 10:57:23;;;;;;;;;;;;;;;24.19;35.58;97129.31;5095857;28;19964;-71
2022/06/10 10:59:54;;;;;;;;;;;;;;;24.46;36.69;97124.13;5095905;28;19957;-71
2022/06/10 11:02:40;;;;;;;;;;;;;;;24.64;34.09;97119.84;5095966;28;20318;-71
2022/06/10 11:05:25;;;;;;;;;;;;;;;24.55;31.62;97116.22;5095861;28;20420;-71
2022/06/10 11:08:05;;;;;;;;;;;;;;;24.32;33.17;97128.59;5095186;28;19960;-71
2022/06/10 11:10:34;;;;;;;;;;;;;;;24.27;35.11;97134.03;5094937;28;19954;-71
2022/06/10 11:13:06;;;;;;;;;;;;;;;24.47;37.21;97143.66;5095727;28;19955;-71
2022/06/10 11:15:34;;;;;;;;;;;;;;;24.56;34.56;97130.44;5095700;28;19970;-71
2022/06/10 11:18:01;;;;;;;;;;;;;;;24.53;35.19;97134.50;5095617;28;19962;-72
2022/06/10 11:20:28;;;;;;;;;;;;;;;24.55;32.84;97131.50;5095640;28;19965;-71
2022/06/10 11:23:13;;;;;;;;;;;;;;;24.38;35.22;97137.34;5094598;28;19962;-71
2022/06/10 11:25:39;;;;;;;;;;;;;;;24.21;34.86;97133.31;5079645;28;19959;-71
2022/06/10 11:28:18;;;;;;;;;;;;;;;24.39;34.25;97125.56;5077323;28;19958;-71
2022/06/10 11:30:48;;;;;;;;;;;;;;;24.32;32.00;97117.88;5095082;28;19988;-71
2022/06/10 11:33:19;;;;;;;;;;;;;;;24.45;35.27;97132.44;5095754;28;20324;-71
2022/06/10 11:36:03;;;;;;;;;;;;;;;24.44;32.40;97117.44;5095275;28;19954;-71
2022/06/10 11:38:32;;;;;;;;;;;;;;;24.60;32.78;97108.09;5085318;28;19988;-71
2022/06/10 11:41:00;;;;;;;;;;;;;;;24.63;30.99;97101.34;5095071;28;19981;-71
2022/06/10 11:43:31;;;;;;;;;;;;;;;24.73;34.19;97116.50;5095122;28;19954;-73
2022/06/10 11:46:02;;;;;;;;;;;;;;;24.68;34.77;97120.06;5095682;28;19959;-71
2022/06/10 11:48:40;;;;;;;;;;;;;;;24.93;34.80;97110.78;5077123;28;19967;-71
2022/06/10 11:51:09;;;;;;;;;;;;;;;25.25;35.19;97109.97;5094927;28;20434;-71
2022/06/10 11:53:54;;;;;;;;;;;;;;;25.30;32.77;97096.47;5094712;28;19959;-71
2022/06/10 11:59:44;;;;;;;;;;;;;;;25.36;30.63;97097.16;5082337;28;19954;-71
2022/06/10 12:02:15;;;;;;;;;;;;;;;25.28;33.44;97116.63;5094029;28;20423;-71
2022/06/10 12:05:07;;;;;;;;;;;;;;;25.37;30.73;97093.41;5087679;28;19980;-72
2022/06/10 12:07:35;;;;;;;;;;;;;;;25.54;32.83;97100.06;5094627;28;19956;-72
2022/06/10 12:10:02;;;;;;;;;;;;;;;25.63;29.61;97087.50;5094427;28;20320;-72
2022/06/10 12:12:31;;;;;;;;;;;;;;;25.63;30.57;97085.63;5094336;28;19963;-72
2022/06/10 12:15:00;;;;;;;;;;;;;;;25.33;30.10;97092.41;5094118;28;19964;-71
2022/06/10 12:17:31;;;;;;;;;;;;;;;25.47;31.86;97093.19;5094534;28;19958;-71
2022/06/10 12:19:59;;;;;;;;;;;;;;;25.76;33.18;97088.59;5094352;28;19956;-71
2022/06/10 12:22:26;;;;;;;;;;;;;;;25.97;31.11;97086.31;5094374;28;20333;-71
2022/06/10 12:24:53;;;;;;;;;;;;;;;26.18;30.66;97073.22;5094512;28;20430;-71
2022/06/10 12:27:25;;;;;;;;;;;;;;;26.29;30.34;97077.25;5094168;28;19955;-71
2022/06/10 12:29:55;;;;;;;;;;;;;;;26.39;30.98;97074.31;5094334;28;20320;-71
2022/06/10 12:32:37;;;;;;;;;;;;;;;26.58;28.54;97057.25;5093901;28;19973;-71
2022/06/10 12:35:18;;;;;;;;;;;;;;;26.65;29.16;97065.69;5093573;28;19960;-71
2022/06/10 12:37:50;;;;;;;;;;;;;;;26.32;28.15;97064.00;5058560;28;19964;-71
2022/06/10 12:40:19;;;;;;;;;;;;;;;26.05;28.72;97074.84;5094055;28;19964;-72
2022/06/10 12:42:50;;;;;;;;;;;;;;;25.69;28.68;97073.69;5092934;28;19962;-71
2022/06/10 12:45:25;;;;;;;;;;;;;;;25.50;27.27;97073.78;5071276;28;19983;-71
2022/06/10 12:47:53;;;;;;;;;;;;;;;25.41;29.37;97072.09;5094000;28;19960;-71
2022/06/10 12:50:21;;;;;;;;;;;;;;;25.33;27.30;97064.75;5093097;28;20386;-71
2022/06/10 12:53:06;;;;;;;;;;;;;;;25.12;26.99;97075.84;5092868;28;19955;-70
2022/06/10 12:55:56;;;;;;;;;;;;;;;25.16;29.70;97082.22;5051558;28;19954;-71
2022/06/10 12:58:37;;;;;;;;;;;;;;;25.39;30.20;97072.41;5051599;28;19962;-71
2022/06/10 13:01:32;;;;;;;;;;;;;;;25.63;29.96;97072.19;5049433;28;19965;-71
2022/06/10 13:03:58;;;;;;;;;;;;;;;25.72;30.43;97062.34;5024518;28;19989;-72
2022/06/10 13:06:31;;;;;;;;;;;;;;;25.92;30.95;97065.72;5051205;28;19991;-71
2022/06/10 13:09:06;;;;;;;;;;;;;;;26.12;30.67;97064.47;5050650;28;19954;-72
2022/06/10 13:11:33;;;;;;;;;;;;;;;26.27;27.97;97048.00;5034247;28;19961;-72
2022/06/10 13:14:13;;;;;;;;;;;;;;;26.19;29.78;97061.38;5051100;28;19953;-72
2022/06/10 13:17:06;;;;;;;;;;;;;;;26.37;30.06;97063.06;5051502;28;20382;-71
2022/06/10 13:19:32;;;;;;;;;;;;;;;26.53;27.86;97047.38;5036034;28;19967;-72
2022/06/10 13:21:58;;;;;;;;;;;;;;;26.60;28.39;97044.28;5051359;28;19957;-71
2022/06/10 13:24:25;;;;;;;;;;;;;;;26.57;27.71;97044.91;5050381;28;20341;-72